Time;durP1;ratioP1;P1;durP2;ratioP2;P2;SDS_P1;SDS_P2;PMS_P1;PMS_P2;Temp;Humidity;BMP_temperature;BMP_pressure;BME280_temperature;BME280_humidity;BME280_pressure;Samples;Min_cycle;Max_cycle;Signal;HPM_P1;HPM_P2
2023/11/28 00:00:03;;;;;;;20.60;17.30;;;12.80;67.20;;;;;;344411;28;1166;-57
2023/11/28 00:00:14;;;;;;;20.15;17.50;;;12.80;67.30;;;;;;344356;28;1026;-56
2023/11/28 00:00:25;;;;;;;20.98;17.60;;;12.80;67.30;;;;;;344377;28;854;-56
2023/11/28 00:00:35;;;;;;;21.83;18.17;;;12.80;67.30;;;;;;344373;28;818;-57
2023/11/28 00:00:48;;;;;;;23.15;18.55;;;12.80;67.30;;;;;;344287;28;1159;-58
2023/11/28 00:00:59;;;;;;;23.88;18.90;;;12.80;67.30;;;;;;344445;28;806;-57
2023/11/28 00:01:10;;;;;;;23.77;18.67;;;12.80;67.30;;;;;;344377;28;1118;-57
2023/11/28 00:01:20;;;;;;;22.83;18.08;;;12.80;67.30;;;;;;344358;28;1026;-57
2023/11/28 00:01:31;;;;;;;22.13;17.50;;;12.70;67.30;;;;;;344398;28;1232;-57
2023/11/28 00:01:42;;;;;;;21.67;17.48;;;12.80;67.30;;;;;;344357;28;984;-56
2023/11/28 00:01:53;;;;;;;22.17;18.08;;;12.80;67.40;;;;;;344295;28;953;-57
2023/11/28 00:02:03;;;;;;;21.90;18.23;;;12.80;67.30;;;;;;344390;28;1071;-56
2023/11/28 00:02:14;;;;;;;21.53;17.90;;;12.80;67.40;;;;;;344405;28;1130;-57
2023/11/28 00:02:25;;;;;;;21.08;17.33;;;12.80;67.40;;;;;;344407;28;976;-57
2023/11/28 00:02:36;;;;;;;22.15;17.67;;;12.80;67.50;;;;;;344309;28;961;-57
2023/11/28 00:02:46;;;;;;;23.08;18.35;;;12.80;67.50;;;;;;344350;28;1485;-57
2023/11/28 00:02:57;;;;;;;24.88;19.20;;;12.80;67.40;;;;;;344392;28;1011;-56
2023/11/28 00:03:08;;;;;;;24.60;19.27;;;12.80;67.40;;;;;;344436;28;960;-57
2023/11/28 00:03:19;;;;;;;23.63;18.60;;;12.80;67.40;;;;;;344340;28;1035;-56
2023/11/28 00:03:30;;;;;;;21.67;17.63;;;12.80;67.30;;;;;;344387;28;1199;-57
2023/11/28 00:03:42;;;;;;;19.98;17.13;;;12.80;67.20;;;;;;344379;28;877;-56
2023/11/28 00:03:53;;;;;;;20.48;17.60;;;12.80;67.20;;;;;;344375;28;1460;-56
2023/11/28 00:04:04;;;;;;;22.00;18.23;;;12.80;67.10;;;;;;344296;28;1338;-56
2023/11/28 00:04:15;;;;;;;21.97;18.20;;;12.80;67.10;;;;;;344454;28;868;-57
2023/11/28 00:04:25;;;;;;;21.13;17.70;;;12.80;67.10;;;;;;344349;28;1293;-58
2023/11/28 00:04:36;;;;;;;19.83;17.30;;;12.80;67.10;;;;;;344383;28;1177;-56
2023/11/28 00:04:49;;;;;;;20.65;17.58;;;12.80;67.10;;;;;;344272;28;1072;-57
2023/11/28 00:05:00;;;;;;;19.33;16.67;;;12.80;67.00;;;;;;344402;28;956;-57
2023/11/28 00:05:10;;;;;;;20.42;17.38;;;12.80;67.00;;;;;;344338;28;1158;-56
2023/11/28 00:05:21;;;;;;;21.27;17.30;;;12.80;67.00;;;;;;344392;28;817;-57
2023/11/28 00:05:32;;;;;;;21.42;17.40;;;12.80;67.00;;;;;;344317;28;1013;-56
2023/11/28 00:05:42;;;;;;;20.42;16.75;;;12.80;67.00;;;;;;344380;28;1028;-55
2023/11/28 00:05:54;;;;;;;19.17;16.60;;;12.80;67.00;;;;;;344365;28;857;-56
2023/11/28 00:06:05;;;;;;;21.70;17.75;;;12.80;67.00;;;;;;344285;28;1119;-57
2023/11/28 00:06:19;;;;;;;23.08;18.85;;;12.80;67.00;;;;;;344298;28;1047;-56
2023/11/28 00:06:29;;;;;;;23.40;19.98;;;12.80;67.00;;;;;;344375;28;988;-56
2023/11/28 00:06:40;;;;;;;21.73;19.07;;;12.80;66.90;;;;;;344414;28;881;-57
2023/11/28 00:06:53;;;;;;;20.77;17.58;;;12.80;67.00;;;;;;344397;28;925;-57
2023/11/28 00:07:04;;;;;;;20.15;16.40;;;12.80;67.10;;;;;;344361;28;1095;-56
2023/11/28 00:07:15;;;;;;;19.07;16.23;;;12.80;67.10;;;;;;344332;28;1063;-56
2023/11/28 00:07:26;;;;;;;19.50;16.58;;;12.80;67.00;;;;;;344402;28;1039;-57
2023/11/28 00:07:36;;;;;;;18.83;16.30;;;12.80;67.00;;;;;;344463;28;1051;-56
2023/11/28 00:07:47;;;;;;;19.25;16.40;;;12.80;67.00;;;;;;344264;28;1993;-57
2023/11/28 00:08:00;;;;;;;18.63;15.93;;;12.80;66.90;;;;;;344366;28;1075;-56
2023/11/28 00:08:11;;;;;;;20.02;16.40;;;12.80;66.90;;;;;;344351;28;942;-56
2023/11/28 00:08:22;;;;;;;20.17;16.90;;;12.80;66.90;;;;;;344428;28;921;-56
2023/11/28 00:08:33;;;;;;;19.50;16.55;;;12.80;67.00;;;;;;344384;28;984;-57
2023/11/28 00:08:44;;;;;;;18.90;16.25;;;12.80;67.10;;;;;;344290;28;924;-57
2023/11/28 00:08:54;;;;;;;19.20;16.58;;;12.80;67.10;;;;;;344395;28;1506;-56
2023/11/28 00:09:05;;;;;;;19.63;17.27;;;12.80;67.10;;;;;;344383;28;1044;-58
2023/11/28 00:09:17;;;;;;;19.40;17.30;;;12.80;67.10;;;;;;344276;28;1618;-56
2023/11/28 00:09:27;;;;;;;18.88;16.80;;;12.80;67.10;;;;;;344388;28;1217;-58
2023/11/28 00:09:38;;;;;;;19.27;16.70;;;12.80;67.00;;;;;;344388;28;1039;-56
2023/11/28 00:09:49;;;;;;;20.20;16.77;;;12.80;67.10;;;;;;344308;28;1016;-56
2023/11/28 00:10:00;;;;;;;20.83;17.13;;;12.80;67.00;;;;;;344304;28;1810;-57
2023/11/28 00:10:11;;;;;;;21.38;17.40;;;12.80;67.10;;;;;;344391;28;1060;-57
2023/11/28 00:10:22;;;;;;;22.20;17.95;;;12.80;67.10;;;;;;344295;28;1867;-57
2023/11/28 00:10:33;;;;;;;21.58;17.48;;;12.80;67.10;;;;;;344380;28;1016;-57
2023/11/28 00:10:43;;;;;;;21.30;17.20;;;12.80;67.10;;;;;;344351;28;924;-57
2023/11/28 00:10:54;;;;;;;20.73;17.08;;;12.80;67.20;;;;;;344264;28;1157;-57
2023/11/28 00:11:05;;;;;;;21.87;17.47;;;12.80;67.20;;;;;;344371;28;944;-57
2023/11/28 00:11:20;;;;;;;21.27;17.33;;;12.70;67.20;;;;;;344353;28;1602;-57
2023/11/28 00:11:31;;;;;;;21.67;17.52;;;12.80;67.20;;;;;;344238;28;1057;-58
2023/11/28 00:11:42;;;;;;;21.87;17.77;;;12.70;67.20;;;;;;344345;28;1019;-56
2023/11/28 00:11:53;;;;;;;22.70;17.92;;;12.80;67.10;;;;;;344246;28;1307;-57
2023/11/28 00:12:04;;;;;;;21.80;17.92;;;12.80;67.10;;;;;;344420;28;837;-56
2023/11/28 00:12:15;;;;;;;21.73;17.95;;;12.80;67.20;;;;;;344363;28;1213;-56
2023/11/28 00:12:26;;;;;;;20.67;17.45;;;12.80;67.10;;;;;;344288;28;1095;-56
2023/11/28 00:12:37;;;;;;;21.42;17.45;;;12.80;67.10;;;;;;344404;28;1047;-57
2023/11/28 00:12:48;;;;;;;21.17;17.40;;;12.80;67.10;;;;;;344306;28;1024;-56
2023/11/28 00:12:59;;;;;;;20.48;17.35;;;12.80;67.10;;;;;;344361;28;988;-57
2023/11/28 00:13:09;;;;;;;20.00;17.37;;;12.80;67.10;;;;;;344296;28;1015;-56
2023/11/28 00:13:20;;;;;;;19.92;17.20;;;12.80;67.20;;;;;;344358;28;1411;-57
2023/11/28 00:13:31;;;;;;;20.95;17.15;;;12.80;67.20;;;;;;344285;28;1020;-56
2023/11/28 00:13:42;;;;;;;20.65;16.85;;;12.70;67.10;;;;;;344385;28;1024;-57
2023/11/28 00:13:53;;;;;;;22.33;17.35;;;12.80;67.10;;;;;;344289;28;909;-56
2023/11/28 00:14:03;;;;;;;22.98;18.65;;;12.80;67.20;;;;;;344345;28;2063;-57
2023/11/28 00:14:14;;;;;;;23.83;19.77;;;12.80;67.20;;;;;;344239;28;1368;-57
2023/11/28 00:14:25;;;;;;;22.88;19.70;;;12.80;67.10;;;;;;344415;28;1033;-56
2023/11/28 00:14:36;;;;;;;22.63;18.88;;;12.70;67.10;;;;;;344299;28;1129;-57
2023/11/28 00:14:48;;;;;;;21.67;18.50;;;12.70;67.10;;;;;;344419;28;1048;-56
2023/11/28 00:14:59;;;;;;;21.60;17.85;;;12.80;67.10;;;;;;344283;28;1394;-56
2023/11/28 00:15:10;;;;;;;21.67;17.85;;;12.80;67.10;;;;;;344356;28;854;-57
2023/11/28 00:15:21;;;;;;;20.50;17.60;;;12.70;67.10;;;;;;344301;28;908;-56
2023/11/28 00:15:35;;;;;;;20.88;17.85;;;12.80;67.10;;;;;;344404;28;999;-57
2023/11/28 00:15:45;;;;;;;21.10;18.08;;;12.70;67.10;;;;;;344294;28;1221;-56
2023/11/28 00:15:56;;;;;;;20.63;17.98;;;12.70;67.10;;;;;;344341;28;1095;-57
2023/11/28 00:16:07;;;;;;;20.17;17.60;;;12.70;67.10;;;;;;344316;28;1059;-56
2023/11/28 00:16:18;;;;;;;20.50;17.30;;;12.80;67.10;;;;;;344322;28;980;-56
2023/11/28 00:16:29;;;;;;;22.02;18.00;;;12.80;67.20;;;;;;344299;28;1018;-56
2023/11/28 00:16:40;;;;;;;21.85;18.15;;;12.70;67.20;;;;;;344343;28;1087;-57
2023/11/28 00:16:51;;;;;;;21.77;18.40;;;12.70;67.20;;;;;;344286;28;995;-56
2023/11/28 00:17:02;;;;;;;22.08;18.17;;;12.80;67.20;;;;;;344359;28;1021;-57
2023/11/28 00:17:13;;;;;;;23.45;18.25;;;12.80;67.30;;;;;;344358;28;940;-56
2023/11/28 00:17:24;;;;;;;22.88;18.35;;;12.80;67.30;;;;;;344352;28;969;-57
2023/11/28 00:17:34;;;;;;;22.02;18.17;;;12.80;67.30;;;;;;344314;28;1057;-57
2023/11/28 00:17:45;;;;;;;20.63;17.30;;;12.70;67.30;;;;;;344366;28;937;-57
2023/11/28 00:17:56;;;;;;;20.75;17.30;;;12.80;67.30;;;;;;344422;28;956;-57
2023/11/28 00:18:07;;;;;;;20.48;17.50;;;12.80;67.30;;;;;;344375;28;1063;-57
2023/11/28 00:18:18;;;;;;;21.35;17.92;;;12.80;67.30;;;;;;344300;28;1046;-58
2023/11/28 00:18:28;;;;;;;21.33;17.58;;;12.80;67.20;;;;;;344348;28;956;-57
2023/11/28 00:18:39;;;;;;;21.60;17.38;;;12.80;67.20;;;;;;344366;28;865;-57
2023/11/28 00:18:51;;;;;;;21.20;17.63;;;12.80;67.30;;;;;;344221;28;1462;-57
2023/11/28 00:19:02;;;;;;;22.45;18.20;;;12.80;67.30;;;;;;344294;28;1206;-56
2023/11/28 00:19:13;;;;;;;24.55;18.85;;;12.80;67.10;;;;;;344339;28;1204;-56
2023/11/28 00:19:24;;;;;;;24.80;18.80;;;12.70;67.20;;;;;;344375;28;1388;-56
2023/11/28 00:19:35;;;;;;;25.00;19.38;;;12.70;67.30;;;;;;344374;28;1043;-56
2023/11/28 00:19:46;;;;;;;23.38;19.05;;;12.70;67.40;;;;;;344382;28;798;-57
2023/11/28 00:19:57;;;;;;;23.20;19.50;;;12.70;67.40;;;;;;344276;28;1527;-57
2023/11/28 00:20:08;;;;;;;23.25;19.73;;;12.70;67.50;;;;;;344426;28;822;-56
2023/11/28 00:20:19;;;;;;;24.25;19.90;;;12.70;67.50;;;;;;344288;28;1008;-56
2023/11/28 00:20:30;;;;;;;23.67;19.55;;;12.70;67.50;;;;;;344409;28;834;-57
2023/11/28 00:20:40;;;;;;;22.97;18.90;;;12.70;67.40;;;;;;344382;28;1132;-57
2023/11/28 00:20:51;;;;;;;23.10;19.23;;;12.70;67.40;;;;;;344343;28;818;-56
2023/11/28 00:21:02;;;;;;;24.40;20.05;;;12.70;67.40;;;;;;344287;28;1003;-57
2023/11/28 00:21:13;;;;;;;24.73;20.25;;;12.70;67.40;;;;;;344407;28;972;-56
2023/11/28 00:21:24;;;;;;;23.52;19.60;;;12.70;67.40;;;;;;344361;28;1116;-57
2023/11/28 00:21:35;;;;;;;23.48;19.50;;;12.70;67.50;;;;;;344373;28;1087;-57
2023/11/28 00:21:46;;;;;;;23.85;19.65;;;12.70;67.50;;;;;;344306;28;1051;-57
2023/11/28 00:21:56;;;;;;;24.83;20.23;;;12.70;67.50;;;;;;344268;28;1605;-57
2023/11/28 00:22:09;;;;;;;24.88;20.45;;;12.70;67.50;;;;;;344307;28;1004;-56
2023/11/28 00:22:19;;;;;;;25.27;20.02;;;12.70;67.50;;;;;;344428;28;923;-56
2023/11/28 00:22:30;;;;;;;24.17;19.13;;;12.70;67.50;;;;;;344290;28;932;-59
2023/11/28 00:22:41;;;;;;;24.50;18.90;;;12.70;67.60;;;;;;344348;28;1151;-55
2023/11/28 00:22:52;;;;;;;24.17;19.42;;;12.70;67.60;;;;;;344318;28;969;-56
2023/11/28 00:23:02;;;;;;;25.83;19.85;;;12.70;67.60;;;;;;344361;28;1318;-58
2023/11/28 00:23:13;;;;;;;26.02;19.70;;;12.70;67.60;;;;;;344353;28;1025;-58
2023/11/28 00:23:24;;;;;;;25.33;19.20;;;12.70;67.60;;;;;;344318;28;1933;-57
2023/11/28 00:23:35;;;;;;;24.60;19.23;;;12.70;67.60;;;;;;344287;28;928;-55
2023/11/28 00:23:45;;;;;;;23.52;19.08;;;12.70;67.60;;;;;;344352;28;1119;-57
2023/11/28 00:23:56;;;;;;;23.65;19.02;;;12.80;67.60;;;;;;344235;28;1045;-57
2023/11/28 00:24:07;;;;;;;23.33;18.88;;;12.80;67.50;;;;;;344404;28;897;-55
2023/11/28 00:24:18;;;;;;;23.35;19.15;;;12.80;67.60;;;;;;344306;28;1096;-56
2023/11/28 00:24:28;;;;;;;23.83;19.47;;;12.80;67.60;;;;;;344315;28;1075;-57
2023/11/28 00:24:39;;;;;;;22.85;19.20;;;12.80;67.60;;;;;;344351;28;1015;-57
2023/11/28 00:24:50;;;;;;;22.92;18.88;;;12.80;67.60;;;;;;344295;28;1242;-56
2023/11/28 00:25:01;;;;;;;22.48;18.35;;;12.80;67.60;;;;;;344317;28;1784;-58
2023/11/28 00:25:11;;;;;;;22.52;18.42;;;12.80;67.60;;;;;;344325;28;1032;-58
2023/11/28 00:25:22;;;;;;;21.73;18.27;;;12.80;67.60;;;;;;344269;28;2187;-57
2023/11/28 00:25:33;;;;;;;21.45;18.60;;;12.80;67.60;;;;;;344427;28;872;-57
2023/11/28 00:25:44;;;;;;;22.58;18.75;;;12.80;67.50;;;;;;344248;28;1082;-57
2023/11/28 00:25:55;;;;;;;22.95;18.98;;;12.80;67.50;;;;;;344313;28;1249;-57
2023/11/28 00:26:06;;;;;;;24.33;19.23;;;12.80;67.50;;;;;;344268;28;1926;-58
2023/11/28 00:26:16;;;;;;;24.75;19.27;;;12.80;67.50;;;;;;344399;28;952;-57
2023/11/28 00:26:27;;;;;;;25.40;19.17;;;12.80;67.50;;;;;;344321;28;1032;-56
2023/11/28 00:26:38;;;;;;;24.80;19.30;;;12.80;67.50;;;;;;344355;28;1020;-58
2023/11/28 00:26:49;;;;;;;23.97;19.43;;;12.80;67.40;;;;;;344304;28;919;-57
2023/11/28 00:27:00;;;;;;;23.17;19.23;;;12.80;67.40;;;;;;344377;28;980;-57
2023/11/28 00:27:10;;;;;;;23.13;18.77;;;12.80;67.40;;;;;;344298;28;1122;-56
2023/11/28 00:27:21;;;;;;;22.77;18.70;;;12.80;67.40;;;;;;344381;28;972;-57
2023/11/28 00:27:32;;;;;;;23.75;19.45;;;12.80;67.30;;;;;;344301;28;989;-57
2023/11/28 00:27:43;;;;;;;23.02;19.27;;;12.80;67.30;;;;;;344371;28;940;-56
2023/11/28 00:27:54;;;;;;;23.13;19.17;;;12.80;67.30;;;;;;344256;28;1969;-56
2023/11/28 00:28:05;;;;;;;23.30;19.20;;;12.80;67.30;;;;;;344385;28;1020;-57
2023/11/28 00:28:15;;;;;;;24.67;20.00;;;12.80;67.40;;;;;;344299;28;1139;-57
2023/11/28 00:28:26;;;;;;;25.55;20.02;;;12.80;67.30;;;;;;344388;28;865;-57
2023/11/28 00:28:37;;;;;;;25.05;19.77;;;12.80;67.40;;;;;;344331;28;1096;-57
2023/11/28 00:28:48;;;;;;;24.45;19.52;;;12.80;67.40;;;;;;344420;28;972;-57
2023/11/28 00:28:58;;;;;;;24.45;19.52;;;12.80;67.50;;;;;;344315;28;885;-57
2023/11/28 00:29:09;;;;;;;24.87;19.57;;;12.80;67.50;;;;;;344395;28;849;-56
2023/11/28 00:29:20;;;;;;;24.55;19.63;;;12.80;67.60;;;;;;344286;28;1175;-55
2023/11/28 00:29:31;;;;;;;23.30;19.00;;;12.80;67.60;;;;;;344390;28;1083;-56
2023/11/28 00:29:42;;;;;;;22.58;18.85;;;12.80;67.60;;;;;;344291;28;1035;-57
2023/11/28 00:29:52;;;;;;;22.88;18.80;;;12.80;67.60;;;;;;344349;28;1043;-57
2023/11/28 00:30:04;;;;;;;22.63;18.73;;;12.80;67.50;;;;;;344340;28;988;-57
2023/11/28 00:30:15;;;;;;;22.15;18.70;;;12.80;67.50;;;;;;344349;28;1032;-57
2023/11/28 00:30:26;;;;;;;22.83;18.83;;;12.80;67.50;;;;;;344293;28;1107;-58
2023/11/28 00:30:37;;;;;;;24.03;19.57;;;12.80;67.60;;;;;;344327;28;1140;-56
2023/11/28 00:30:48;;;;;;;23.92;19.42;;;12.70;67.70;;;;;;344325;28;1164;-59
2023/11/28 00:30:59;;;;;;;23.55;19.23;;;12.80;67.70;;;;;;344323;28;1301;-57
2023/11/28 00:31:10;;;;;;;23.10;18.97;;;12.80;67.70;;;;;;344354;28;1054;-58
2023/11/28 00:31:20;;;;;;;24.33;19.20;;;12.80;67.70;;;;;;344404;28;886;-56
2023/11/28 00:31:31;;;;;;;24.42;19.38;;;12.80;67.70;;;;;;344322;28;1087;-57
2023/11/28 00:31:42;;;;;;;23.88;19.23;;;12.80;67.70;;;;;;344372;28;1099;-58
2023/11/28 00:31:53;;;;;;;23.40;19.63;;;12.80;67.70;;;;;;344327;28;1012;-56
2023/11/28 00:32:04;;;;;;;22.67;19.03;;;12.80;67.80;;;;;;344343;28;903;-58
2023/11/28 00:32:15;;;;;;;23.98;19.08;;;12.80;67.80;;;;;;344375;28;1139;-57
2023/11/28 00:32:26;;;;;;;24.27;19.08;;;12.80;67.80;;;;;;344351;28;1032;-57
2023/11/28 00:32:37;;;;;;;25.42;19.70;;;12.80;67.80;;;;;;344258;28;1166;-56
2023/11/28 00:32:47;;;;;;;26.10;19.87;;;12.80;67.80;;;;;;344320;28;1008;-59
2023/11/28 00:32:58;;;;;;;25.97;19.77;;;12.80;67.80;;;;;;344392;28;996;-58
2023/11/28 00:33:09;;;;;;;24.88;19.55;;;12.80;67.80;;;;;;344326;28;1293;-56
2023/11/28 00:33:20;;;;;;;23.63;18.83;;;12.80;67.80;;;;;;344315;28;900;-57
2023/11/28 00:33:31;;;;;;;23.67;18.50;;;12.80;67.80;;;;;;344374;28;1150;-56
2023/11/28 00:33:41;;;;;;;23.73;18.63;;;12.80;67.90;;;;;;344283;28;1272;-57
2023/11/28 00:33:52;;;;;;;23.40;18.93;;;12.70;67.90;;;;;;344331;28;814;-56
2023/11/28 00:34:03;;;;;;;21.83;18.77;;;12.80;67.90;;;;;;344281;28;1328;-57
2023/11/28 00:34:14;;;;;;;22.08;18.23;;;12.80;67.90;;;;;;344361;28;948;-56
2023/11/28 00:34:25;;;;;;;23.02;18.48;;;12.80;67.90;;;;;;344377;28;980;-58
2023/11/28 00:34:36;;;;;;;23.42;18.40;;;12.80;67.90;;;;;;344365;28;956;-57
2023/11/28 00:34:46;;;;;;;23.85;18.92;;;12.80;67.90;;;;;;344366;28;845;-57
2023/11/28 00:34:57;;;;;;;23.67;18.70;;;12.80;67.80;;;;;;344262;28;817;-57
2023/11/28 00:35:08;;;;;;;23.07;18.83;;;12.80;67.80;;;;;;344305;28;1100;-56
2023/11/28 00:35:19;;;;;;;23.90;18.88;;;12.80;67.80;;;;;;344386;28;1067;-56
2023/11/28 00:35:30;;;;;;;24.35;18.98;;;12.80;67.80;;;;;;344363;28;1036;-56
2023/11/28 00:35:41;;;;;;;24.92;18.80;;;12.80;67.80;;;;;;344331;28;913;-56
2023/11/28 00:35:52;;;;;;;23.83;18.55;;;12.80;67.80;;;;;;344343;28;1060;-55
2023/11/28 00:36:03;;;;;;;23.27;18.47;;;12.80;67.70;;;;;;344364;28;1044;-57
2023/11/28 00:36:17;;;;;;;23.05;18.55;;;12.80;67.70;;;;;;344369;28;1048;-56
2023/11/28 00:36:27;;;;;;;23.88;19.05;;;12.80;67.70;;;;;;344328;28;1099;-57
2023/11/28 00:36:38;;;;;;;24.00;19.13;;;12.80;67.60;;;;;;344387;28;1083;-55
2023/11/28 00:36:49;;;;;;;24.23;19.52;;;12.70;67.60;;;;;;344359;28;878;-56
2023/11/28 00:37:00;;;;;;;23.52;19.08;;;12.80;67.60;;;;;;344386;28;818;-56
2023/11/28 00:37:10;;;;;;;23.80;18.75;;;12.70;67.60;;;;;;344339;28;885;-57
2023/11/28 00:37:21;;;;;;;22.07;17.90;;;12.70;67.70;;;;;;344382;28;1055;-59
2023/11/28 00:37:32;;;;;;;22.53;18.40;;;12.70;67.70;;;;;;344412;28;908;-56
2023/11/28 00:37:43;;;;;;;22.45;18.65;;;12.70;67.70;;;;;;344354;28;1153;-56
2023/11/28 00:37:54;;;;;;;24.25;19.13;;;12.80;67.70;;;;;;344285;28;1122;-56
2023/11/28 00:38:06;;;;;;;24.20;19.20;;;12.80;67.70;;;;;;344346;28;1048;-57
2023/11/28 00:38:17;;;;;;;24.27;19.27;;;12.80;67.70;;;;;;344402;28;1011;-58
2023/11/28 00:38:29;;;;;;;23.80;19.33;;;12.70;67.70;;;;;;344248;28;1096;-56
2023/11/28 00:38:39;;;;;;;23.70;19.42;;;12.70;67.80;;;;;;344347;28;1059;-58
2023/11/28 00:38:50;;;;;;;24.15;19.27;;;12.70;67.70;;;;;;344271;28;1100;-57
2023/11/28 00:39:01;;;;;;;24.63;19.57;;;12.70;67.80;;;;;;344251;28;960;-57
2023/11/28 00:39:11;;;;;;;24.95;19.42;;;12.80;67.80;;;;;;344352;28;1043;-57
2023/11/28 00:39:22;;;;;;;23.73;18.92;;;12.70;67.80;;;;;;344423;28;996;-57
2023/11/28 00:39:33;;;;;;;22.05;17.90;;;12.70;67.90;;;;;;344235;28;914;-57
2023/11/28 00:39:44;;;;;;;22.35;18.10;;;12.70;67.90;;;;;;344353;28;904;-57
2023/11/28 00:39:55;;;;;;;23.50;18.33;;;12.80;67.90;;;;;;344356;28;1023;-57
2023/11/28 00:40:11;;;;;;;24.45;19.05;;;12.70;67.90;;;;;;344366;28;971;-56
2023/11/28 00:40:25;;;;;;;24.23;19.15;;;12.70;67.90;;;;;;344398;28;858;-57
2023/11/28 00:40:36;;;;;;;24.83;19.13;;;12.70;67.90;;;;;;344358;28;1642;-56
2023/11/28 00:40:48;;;;;;;24.20;18.88;;;12.70;67.90;;;;;;344344;28;1094;-57
2023/11/28 00:40:58;;;;;;;22.08;17.95;;;12.80;67.90;;;;;;344319;28;1047;-56
2023/11/28 00:41:10;;;;;;;21.87;17.63;;;12.70;67.90;;;;;;344366;28;1072;-57
2023/11/28 00:41:24;;;;;;;22.55;17.63;;;12.70;68.00;;;;;;344298;28;1565;-56
2023/11/28 00:41:34;;;;;;;23.05;18.33;;;12.70;68.00;;;;;;344334;28;1087;-56
2023/11/28 00:41:45;;;;;;;22.13;18.20;;;12.70;68.00;;;;;;344195;28;1333;-57
2023/11/28 00:41:56;;;;;;;23.23;18.27;;;12.70;68.00;;;;;;344327;28;1032;-57
2023/11/28 00:42:07;;;;;;;22.77;18.17;;;12.70;67.90;;;;;;344338;28;1561;-57
2023/11/28 00:42:18;;;;;;;22.45;18.38;;;12.70;67.90;;;;;;344262;28;1174;-56
2023/11/28 00:42:28;;;;;;;22.17;18.40;;;12.70;67.90;;;;;;344344;28;1582;-57
2023/11/28 00:42:40;;;;;;;22.52;18.73;;;12.70;68.00;;;;;;344321;28;1047;-57
2023/11/28 00:42:51;;;;;;;23.80;18.98;;;12.70;68.00;;;;;;344288;28;1080;-57
2023/11/28 00:43:03;;;;;;;23.58;18.90;;;12.70;68.00;;;;;;344429;28;877;-56
2023/11/28 00:43:17;;;;;;;22.23;17.92;;;12.70;68.00;;;;;;344381;28;1078;-57
2023/11/28 00:43:28;;;;;;;21.58;17.90;;;12.70;68.10;;;;;;344298;28;932;-56
2023/11/28 00:43:39;;;;;;;22.00;17.98;;;12.70;68.00;;;;;;344314;28;1334;-58
2023/11/28 00:43:50;;;;;;;22.77;18.33;;;12.70;68.10;;;;;;344307;28;1024;-56
2023/11/28 00:44:00;;;;;;;22.45;18.35;;;12.70;68.10;;;;;;344320;28;995;-57
2023/11/28 00:44:11;;;;;;;22.70;18.58;;;12.70;68.10;;;;;;344382;28;1158;-57
2023/11/28 00:44:22;;;;;;;23.15;18.98;;;12.70;68.10;;;;;;344320;28;1032;-57
2023/11/28 00:44:33;;;;;;;22.65;18.38;;;12.70;68.10;;;;;;344258;28;1144;-57
2023/11/28 00:44:44;;;;;;;22.48;18.23;;;12.70;68.10;;;;;;344354;28;817;-56
2023/11/28 00:44:55;;;;;;;22.27;18.38;;;12.70;68.10;;;;;;344320;28;1165;-56
2023/11/28 00:45:09;;;;;;;22.63;18.35;;;12.70;68.10;;;;;;344305;28;920;-57
2023/11/28 00:45:24;;;;;;;22.77;18.30;;;12.70;68.10;;;;;;344341;28;1004;-56
2023/11/28 00:45:35;;;;;;;23.50;18.98;;;12.70;68.10;;;;;;344244;28;1835;-57
2023/11/28 00:45:47;;;;;;;23.93;18.87;;;12.70;68.20;;;;;;344335;28;1076;-58
2023/11/28 00:45:57;;;;;;;23.45;18.98;;;12.70;68.30;;;;;;344340;28;1647;-56
2023/11/28 00:46:09;;;;;;;23.17;18.83;;;12.70;68.30;;;;;;344186;28;1020;-56
2023/11/28 00:46:22;;;;;;;23.50;19.33;;;12.70;68.20;;;;;;344355;28;1036;-56
2023/11/28 00:46:33;;;;;;;23.95;19.45;;;12.70;68.20;;;;;;344332;28;1332;-58
2023/11/28 00:46:43;;;;;;;23.73;19.27;;;12.70;68.20;;;;;;344304;28;1032;-55
2023/11/28 00:46:54;;;;;;;23.80;18.73;;;12.70;68.10;;;;;;344361;28;1016;-58
2023/11/28 00:47:05;;;;;;;24.02;18.75;;;12.70;68.10;;;;;;344340;28;1079;-56
2023/11/28 00:47:17;;;;;;;23.23;18.45;;;12.70;68.10;;;;;;344261;28;996;-56
2023/11/28 00:47:27;;;;;;;22.05;18.23;;;12.70;68.10;;;;;;344364;28;899;-56
2023/11/28 00:47:40;;;;;;;22.52;17.88;;;12.70;68.10;;;;;;344290;28;1052;-56
2023/11/28 00:47:51;;;;;;;22.23;17.63;;;12.70;68.20;;;;;;344125;28;1907;-56
2023/11/28 00:48:03;;;;;;;21.80;17.40;;;12.70;68.20;;;;;;344110;28;1505;-56
2023/11/28 00:48:13;;;;;;;22.08;17.67;;;12.70;68.20;;;;;;344066;28;992;-54
2023/11/28 00:48:24;;;;;;;22.20;18.05;;;12.70;68.20;;;;;;344039;28;1088;-55
2023/11/28 00:48:35;;;;;;;21.58;18.08;;;12.70;68.20;;;;;;344029;28;1088;-55
2023/11/28 00:48:47;;;;;;;22.95;18.05;;;12.70;68.30;;;;;;344098;28;1169;-56
2023/11/28 00:48:57;;;;;;;22.67;17.80;;;12.70;68.20;;;;;;344318;28;1939;-56
2023/11/28 00:49:10;;;;;;;22.00;17.52;;;12.70;68.20;;;;;;344367;28;984;-56
2023/11/28 00:49:20;;;;;;;20.80;17.30;;;12.80;68.10;;;;;;344262;28;965;-55
2023/11/28 00:49:31;;;;;;;21.58;17.50;;;12.70;68.00;;;;;;344313;28;1032;-56
2023/11/28 00:49:42;;;;;;;21.87;17.70;;;12.70;68.00;;;;;;344365;28;1035;-56
2023/11/28 00:49:53;;;;;;;21.77;17.92;;;12.70;68.00;;;;;;344252;28;1000;-56
2023/11/28 00:50:05;;;;;;;21.48;18.30;;;12.70;67.90;;;;;;344309;28;991;-56
2023/11/28 00:50:17;;;;;;;22.20;18.65;;;12.70;67.90;;;;;;344337;28;1474;-56
2023/11/28 00:50:28;;;;;;;23.70;19.10;;;12.70;68.00;;;;;;344292;28;1024;-56
2023/11/28 00:50:39;;;;;;;25.00;19.13;;;12.70;68.00;;;;;;344327;28;881;-56
2023/11/28 00:50:53;;;;;;;24.70;19.10;;;12.70;68.00;;;;;;344328;28;1111;-56
2023/11/28 00:51:05;;;;;;;23.88;18.48;;;12.80;68.00;;;;;;344289;28;1083;-56
2023/11/28 00:51:17;;;;;;;22.83;18.33;;;12.70;67.90;;;;;;344252;28;1203;-56
2023/11/28 00:51:27;;;;;;;22.55;18.45;;;12.70;67.90;;;;;;344370;28;977;-57
2023/11/28 00:51:44;;;;;;;23.08;19.30;;;12.70;67.90;;;;;;344227;28;1688;-55
2023/11/28 00:51:55;;;;;;;24.05;19.27;;;12.70;67.90;;;;;;344300;28;1084;-56
2023/11/28 00:52:06;;;;;;;24.02;18.50;;;12.70;67.90;;;;;;344316;28;846;-57
2023/11/28 00:52:17;;;;;;;23.67;18.35;;;12.70;67.90;;;;;;344276;28;1051;-57
2023/11/28 00:52:28;;;;;;;24.42;18.63;;;12.70;67.90;;;;;;344340;28;1099;-56
2023/11/28 00:52:39;;;;;;;24.52;19.08;;;12.80;67.90;;;;;;344402;28;818;-57
2023/11/28 00:52:50;;;;;;;24.45;19.15;;;12.70;67.90;;;;;;344340;28;1036;-56
2023/11/28 00:53:00;;;;;;;23.63;18.60;;;12.70;67.90;;;;;;344255;28;968;-56
2023/11/28 00:53:11;;;;;;;22.60;18.03;;;12.70;67.90;;;;;;344284;28;948;-56
2023/11/28 00:53:23;;;;;;;22.60;18.20;;;12.70;68.00;;;;;;344278;28;1175;-57
2023/11/28 00:53:34;;;;;;;23.63;18.90;;;12.70;67.90;;;;;;344234;28;1872;-56
2023/11/28 00:53:45;;;;;;;24.40;19.45;;;12.70;68.00;;;;;;344382;28;874;-56
2023/11/28 00:53:55;;;;;;;24.20;19.73;;;12.70;68.00;;;;;;344207;28;1480;-56
2023/11/28 00:54:06;;;;;;;23.02;19.27;;;12.70;67.90;;;;;;344246;28;972;-56
2023/11/28 00:54:17;;;;;;;23.27;18.42;;;12.80;67.90;;;;;;344324;28;846;-55
2023/11/28 00:54:28;;;;;;;22.10;17.73;;;12.70;68.00;;;;;;344369;28;1225;-56
2023/11/28 00:54:39;;;;;;;22.48;18.42;;;12.70;68.00;;;;;;344296;28;920;-57
2023/11/28 00:54:49;;;;;;;22.73;18.77;;;12.70;68.10;;;;;;344257;28;1428;-56
2023/11/28 00:55:00;;;;;;;23.50;18.63;;;12.70;68.10;;;;;;344391;28;837;-56
2023/11/28 00:55:11;;;;;;;23.95;18.35;;;12.70;68.10;;;;;;344253;28;1008;-56
2023/11/28 00:55:23;;;;;;;21.83;17.70;;;12.70;68.10;;;;;;344263;28;1166;-56
2023/11/28 00:55:35;;;;;;;21.17;17.48;;;12.70;68.10;;;;;;344415;28;920;-56
2023/11/28 00:55:45;;;;;;;21.48;17.35;;;12.70;68.10;;;;;;344217;28;896;-56
2023/11/28 00:55:56;;;;;;;22.37;18.17;;;12.70;68.10;;;;;;344313;28;1024;-56
2023/11/28 00:56:08;;;;;;;22.50;18.77;;;12.70;68.10;;;;;;344319;28;893;-56
2023/11/28 00:56:20;;;;;;;22.42;19.10;;;12.70;68.10;;;;;;344295;28;1044;-56
2023/11/28 00:56:31;;;;;;;22.88;18.98;;;12.70;68.10;;;;;;344370;28;1198;-55
2023/11/28 00:56:41;;;;;;;22.55;18.70;;;12.70;68.00;;;;;;344338;28;1028;-56
2023/11/28 00:56:52;;;;;;;22.65;18.85;;;12.70;68.00;;;;;;344137;28;1175;-57
2023/11/28 00:57:04;;;;;;;22.53;18.27;;;12.70;68.00;;;;;;344362;28;1091;-57
2023/11/28 00:57:14;;;;;;;22.67;18.13;;;12.70;67.90;;;;;;344263;28;1539;-57
2023/11/28 00:57:25;;;;;;;21.10;17.17;;;12.80;68.00;;;;;;344267;28;1022;-56
2023/11/28 00:57:36;;;;;;;21.70;17.67;;;12.70;67.90;;;;;;344262;28;1166;-56
2023/11/28 00:57:47;;;;;;;21.80;17.45;;;12.70;67.90;;;;;;344335;28;953;-56
2023/11/28 00:57:57;;;;;;;21.60;17.90;;;12.70;67.90;;;;;;344309;28;1067;-57